sensor_id;sensor_type;location;lat;lon;timestamp;P1;durP1;ratioP1;P2;durP2;ratioP2
46729;SDS011;32476;50.002;11.854;2022-10-17T00:02:13;11.27;;;4.43;;
46729;SDS011;32476;50.002;11.854;2022-10-17T00:04:39;8.90;;;5.00;;
46729;SDS011;32476;50.002;11.854;2022-10-17T00:07:05;5.90;;;4.67;;
46729;SDS011;32476;50.002;11.854;2022-10-17T00:09:32;9.13;;;5.10;;
46729;SDS011;32476;50.002;11.854;2022-10-17T00:11:58;8.03;;;4.33;;
46729;SDS011;32476;50.002;11.854;2022-10-17T00:14:24;7.97;;;4.43;;
46729;SDS011;32476;50.002;11.854;2022-10-17T00:16:52;6.00;;;4.30;;
46729;SDS011;32476;50.002;11.854;2022-10-17T00:19:18;9.43;;;4.30;;
46729;SDS011;32476;50.002;11.854;2022-10-17T00:21:43;9.07;;;4.10;;
46729;SDS011;32476;50.002;11.854;2022-10-17T00:24:11;4.80;;;3.83;;
46729;SDS011;32476;50.002;11.854;2022-10-17T00:26:37;5.73;;;3.67;;
46729;SDS011;32476;50.002;11.854;2022-10-17T00:29:03;6.47;;;3.87;;
46729;SDS011;32476;50.002;11.854;2022-10-17T00:31:30;4.30;;;3.00;;
46729;SDS011;32476;50.002;11.854;2022-10-17T00:33:56;9.20;;;3.57;;
46729;SDS011;32476;50.002;11.854;2022-10-17T00:36:23;5.10;;;3.07;;
46729;SDS011;32476;50.002;11.854;2022-10-17T00:38:54;4.40;;;2.90;;
46729;SDS011;32476;50.002;11.854;2022-10-17T00:41:25;8.00;;;3.07;;
46729;SDS011;32476;50.002;11.854;2022-10-17T00:44:03;5.57;;;3.00;;
46729;SDS011;32476;50.002;11.854;2022-10-17T00:46:51;10.23;;;2.90;;
46729;SDS011;32476;50.002;11.854;2022-10-17T00:49:19;4.03;;;2.80;;
46729;SDS011;32476;50.002;11.854;2022-10-17T00:51:54;5.63;;;2.90;;
46729;SDS011;32476;50.002;11.854;2022-10-17T00:54:32;7.83;;;2.93;;
46729;SDS011;32476;50.002;11.854;2022-10-17T00:57:03;5.03;;;3.23;;
46729;SDS011;32476;50.002;11.854;2022-10-17T00:59:34;7.60;;;2.90;;
46729;SDS011;32476;50.002;11.854;2022-10-17T01:02:04;4.23;;;2.70;;
46729;SDS011;32476;50.002;11.854;2022-10-17T01:04:41;7.13;;;2.90;;
46729;SDS011;32476;50.002;11.854;2022-10-17T01:07:10;4.17;;;2.73;;
46729;SDS011;32476;50.002;11.854;2022-10-17T01:09:36;3.83;;;2.90;;
46729;SDS011;32476;50.002;11.854;2022-10-17T01:12:19;2.73;;;2.30;;
46729;SDS011;32476;50.002;11.854;2022-10-17T01:17:32;4.97;;;2.83;;
46729;SDS011;32476;50.002;11.854;2022-10-17T01:24:11;5.07;;;3.00;;
46729;SDS011;32476;50.002;11.854;2022-10-17T01:26:36;6.07;;;2.67;;
46729;SDS011;32476;50.002;11.854;2022-10-17T01:32:12;3.40;;;2.77;;
46729;SDS011;32476;50.002;11.854;2022-10-17T01:34:58;6.07;;;2.57;;
46729;SDS011;32476;50.002;11.854;2022-10-17T01:37:47;6.70;;;2.57;;
46729;SDS011;32476;50.002;11.854;2022-10-17T01:40:28;3.27;;;2.30;;
46729;SDS011;32476;50.002;11.854;2022-10-17T01:43:06;4.03;;;2.43;;
46729;SDS011;32476;50.002;11.854;2022-10-17T01:46:09;3.93;;;2.83;;
46729;SDS011;32476;50.002;11.854;2022-10-17T01:48:46;4.47;;;2.53;;
46729;SDS011;32476;50.002;11.854;2022-10-17T01:51:33;7.30;;;2.70;;
46729;SDS011;32476;50.002;11.854;2022-10-17T01:56:44;3.50;;;2.47;;
46729;SDS011;32476;50.002;11.854;2022-10-17T01:59:13;5.90;;;2.60;;
46729;SDS011;32476;50.002;11.854;2022-10-17T02:01:50;12.00;;;2.87;;
46729;SDS011;32476;50.002;11.854;2022-10-17T02:04:18;3.70;;;2.90;;
46729;SDS011;32476;50.002;11.854;2022-10-17T02:06:45;3.07;;;2.50;;
46729;SDS011;32476;50.002;11.854;2022-10-17T02:21:18;6.17;;;2.80;;
46729;SDS011;32476;50.002;11.854;2022-10-17T02:26:54;4.17;;;2.90;;
46729;SDS011;32476;50.002;11.854;2022-10-17T02:29:38;6.50;;;2.93;;
46729;SDS011;32476;50.002;11.854;2022-10-17T02:32:18;5.67;;;2.77;;
46729;SDS011;32476;50.002;11.854;2022-10-17T02:34:54;5.77;;;2.57;;
46729;SDS011;32476;50.002;11.854;2022-10-17T02:37:24;5.87;;;2.50;;
46729;SDS011;32476;50.002;11.854;2022-10-17T02:39:53;6.77;;;2.93;;
46729;SDS011;32476;50.002;11.854;2022-10-17T02:42:23;8.87;;;2.50;;
46729;SDS011;32476;50.002;11.854;2022-10-17T02:44:51;4.50;;;2.67;;
46729;SDS011;32476;50.002;11.854;2022-10-17T02:47:34;7.63;;;2.70;;
46729;SDS011;32476;50.002;11.854;2022-10-17T02:50:09;6.50;;;2.50;;
46729;SDS011;32476;50.002;11.854;2022-10-17T02:52:38;5.07;;;2.53;;
46729;SDS011;32476;50.002;11.854;2022-10-17T02:55:28;4.80;;;2.40;;
46729;SDS011;32476;50.002;11.854;2022-10-17T02:57:59;7.33;;;2.70;;
46729;SDS011;32476;50.002;11.854;2022-10-17T03:00:38;5.83;;;2.37;;
46729;SDS011;32476;50.002;11.854;2022-10-17T03:03:18;6.70;;;2.83;;
46729;SDS011;32476;50.002;11.854;2022-10-17T03:05:51;4.93;;;2.73;;
46729;SDS011;32476;50.002;11.854;2022-10-17T03:08:18;4.53;;;2.67;;
46729;SDS011;32476;50.002;11.854;2022-10-17T03:10:45;4.10;;;2.90;;
46729;SDS011;32476;50.002;11.854;2022-10-17T03:13:13;2.60;;;2.30;;
46729;SDS011;32476;50.002;11.854;2022-10-17T03:15:40;3.57;;;2.53;;
46729;SDS011;32476;50.002;11.854;2022-10-17T03:18:06;5.23;;;2.40;;
46729;SDS011;32476;50.002;11.854;2022-10-17T03:20:34;5.60;;;2.77;;
46729;SDS011;32476;50.002;11.854;2022-10-17T03:23:00;10.97;;;3.43;;
46729;SDS011;32476;50.002;11.854;2022-10-17T03:25:26;5.27;;;2.53;;
46729;SDS011;32476;50.002;11.854;2022-10-17T03:27:54;5.10;;;3.37;;
46729;SDS011;32476;50.002;11.854;2022-10-17T03:30:24;7.73;;;2.70;;
46729;SDS011;32476;50.002;11.854;2022-10-17T03:32:50;4.10;;;2.70;;
46729;SDS011;32476;50.002;11.854;2022-10-17T03:35:18;7.97;;;2.73;;
46729;SDS011;32476;50.002;11.854;2022-10-17T03:37:44;4.07;;;2.80;;
46729;SDS011;32476;50.002;11.854;2022-10-17T03:40:10;3.60;;;2.70;;
46729;SDS011;32476;50.002;11.854;2022-10-17T03:42:37;4.37;;;3.17;;
46729;SDS011;32476;50.002;11.854;2022-10-17T03:45:03;3.93;;;2.77;;
46729;SDS011;32476;50.002;11.854;2022-10-17T03:47:29;3.93;;;3.00;;
46729;SDS011;32476;50.002;11.854;2022-10-17T03:49:57;4.60;;;3.17;;
46729;SDS011;32476;50.002;11.854;2022-10-17T03:52:23;3.30;;;2.50;;
46729;SDS011;32476;50.002;11.854;2022-10-17T03:54:49;9.23;;;3.70;;
46729;SDS011;32476;50.002;11.854;2022-10-17T03:57:18;8.47;;;3.10;;
46729;SDS011;32476;50.002;11.854;2022-10-17T03:59:44;3.67;;;3.07;;
46729;SDS011;32476;50.002;11.854;2022-10-17T04:02:10;6.93;;;2.60;;
46729;SDS011;32476;50.002;11.854;2022-10-17T04:04:37;3.90;;;2.60;;
46729;SDS011;32476;50.002;11.854;2022-10-17T04:07:03;10.07;;;3.13;;
46729;SDS011;32476;50.002;11.854;2022-10-17T04:09:30;4.60;;;2.57;;
46729;SDS011;32476;50.002;11.854;2022-10-17T04:11:57;9.57;;;2.93;;
46729;SDS011;32476;50.002;11.854;2022-10-17T04:14:23;6.23;;;2.97;;
46729;SDS011;32476;50.002;11.854;2022-10-17T04:16:49;6.70;;;2.90;;
46729;SDS011;32476;50.002;11.854;2022-10-17T04:19:16;7.40;;;3.63;;
46729;SDS011;32476;50.002;11.854;2022-10-17T04:21:42;6.30;;;3.77;;
46729;SDS011;32476;50.002;11.854;2022-10-17T04:24:11;8.20;;;6.17;;
46729;SDS011;32476;50.002;11.854;2022-10-17T04:26:39;6.83;;;4.17;;
46729;SDS011;32476;50.002;11.854;2022-10-17T04:29:05;7.43;;;3.37;;
46729;SDS011;32476;50.002;11.854;2022-10-17T04:31:30;5.83;;;3.13;;
46729;SDS011;32476;50.002;11.854;2022-10-17T04:33:58;11.40;;;5.90;;
46729;SDS011;32476;50.002;11.854;2022-10-17T04:36:24;29.83;;;20.27;;
46729;SDS011;32476;50.002;11.854;2022-10-17T04:38:50;33.60;;;21.47;;
46729;SDS011;32476;50.002;11.854;2022-10-17T04:41:17;19.73;;;12.80;;
46729;SDS011;32476;50.002;11.854;2022-10-17T04:43:44;11.10;;;6.17;;
46729;SDS011;32476;50.002;11.854;2022-10-17T04:46:11;12.60;;;7.87;;
46729;SDS011;32476;50.002;11.854;2022-10-17T04:48:40;11.90;;;10.60;;
46729;SDS011;32476;50.002;11.854;2022-10-17T04:51:11;12.27;;;8.73;;
46729;SDS011;32476;50.002;11.854;2022-10-17T04:53:41;6.90;;;6.07;;
46729;SDS011;32476;50.002;11.854;2022-10-17T04:56:13;9.23;;;6.20;;
46729;SDS011;32476;50.002;11.854;2022-10-17T04:58:46;12.30;;;7.60;;
46729;SDS011;32476;50.002;11.854;2022-10-17T05:01:15;9.80;;;8.27;;
46729;SDS011;32476;50.002;11.854;2022-10-17T05:03:44;7.37;;;4.37;;
46729;SDS011;32476;50.002;11.854;2022-10-17T05:06:13;25.83;;;22.43;;
46729;SDS011;32476;50.002;11.854;2022-10-17T05:08:48;7.67;;;4.80;;
46729;SDS011;32476;50.002;11.854;2022-10-17T05:11:16;9.17;;;7.17;;
46729;SDS011;32476;50.002;11.854;2022-10-17T05:13:48;10.63;;;7.43;;
46729;SDS011;32476;50.002;11.854;2022-10-17T05:16:23;7.93;;;4.90;;
46729;SDS011;32476;50.002;11.854;2022-10-17T05:18:51;7.97;;;6.00;;
46729;SDS011;32476;50.002;11.854;2022-10-17T05:21:20;14.70;;;6.53;;
46729;SDS011;32476;50.002;11.854;2022-10-17T05:23:49;12.47;;;7.20;;
46729;SDS011;32476;50.002;11.854;2022-10-17T05:26:16;8.07;;;5.80;;
46729;SDS011;32476;50.002;11.854;2022-10-17T05:28:43;8.43;;;5.07;;
46729;SDS011;32476;50.002;11.854;2022-10-17T05:31:10;6.83;;;5.93;;
46729;SDS011;32476;50.002;11.854;2022-10-17T05:33:37;13.93;;;11.50;;
46729;SDS011;32476;50.002;11.854;2022-10-17T05:36:04;11.80;;;6.13;;
46729;SDS011;32476;50.002;11.854;2022-10-17T05:38:34;9.13;;;6.20;;
46729;SDS011;32476;50.002;11.854;2022-10-17T05:41:00;9.37;;;5.70;;
46729;SDS011;32476;50.002;11.854;2022-10-17T05:43:29;6.83;;;5.37;;
46729;SDS011;32476;50.002;11.854;2022-10-17T05:45:57;7.33;;;4.40;;
46729;SDS011;32476;50.002;11.854;2022-10-17T05:48:23;6.73;;;4.77;;
46729;SDS011;32476;50.002;11.854;2022-10-17T05:50:55;10.27;;;4.30;;
46729;SDS011;32476;50.002;11.854;2022-10-17T05:53:32;9.63;;;4.77;;
46729;SDS011;32476;50.002;11.854;2022-10-17T05:56:01;6.20;;;4.33;;
46729;SDS011;32476;50.002;11.854;2022-10-17T05:58:31;7.30;;;3.67;;
46729;SDS011;32476;50.002;11.854;2022-10-17T06:01:02;131.93;;;55.73;;
46729;SDS011;32476;50.002;11.854;2022-10-17T06:03:32;91.87;;;37.20;;
46729;SDS011;32476;50.002;11.854;2022-10-17T06:06:02;108.27;;;41.00;;
46729;SDS011;32476;50.002;11.854;2022-10-17T06:08:32;171.57;;;57.90;;
46729;SDS011;32476;50.002;11.854;2022-10-17T06:11:01;63.33;;;22.60;;
46729;SDS011;32476;50.002;11.854;2022-10-17T06:13:28;73.97;;;26.27;;
46729;SDS011;32476;50.002;11.854;2022-10-17T06:15:58;42.77;;;18.63;;
46729;SDS011;32476;50.002;11.854;2022-10-17T06:18:24;144.37;;;57.57;;
46729;SDS011;32476;50.002;11.854;2022-10-17T06:20:51;128.43;;;50.77;;
46729;SDS011;32476;50.002;11.854;2022-10-17T06:23:18;25.03;;;10.77;;
46729;SDS011;32476;50.002;11.854;2022-10-17T06:25:44;159.07;;;62.47;;
46729;SDS011;32476;50.002;11.854;2022-10-17T06:28:10;43.93;;;15.77;;
46729;SDS011;32476;50.002;11.854;2022-10-17T06:30:39;169.23;;;60.97;;
46729;SDS011;32476;50.002;11.854;2022-10-17T06:33:05;59.37;;;25.67;;
46729;SDS011;32476;50.002;11.854;2022-10-17T06:35:31;25.43;;;12.00;;
46729;SDS011;32476;50.002;11.854;2022-10-17T06:37:59;37.53;;;16.77;;
46729;SDS011;32476;50.002;11.854;2022-10-17T06:40:24;42.70;;;17.90;;
46729;SDS011;32476;50.002;11.854;2022-10-17T06:42:51;47.47;;;21.47;;
46729;SDS011;32476;50.002;11.854;2022-10-17T06:45:18;84.37;;;37.33;;
46729;SDS011;32476;50.002;11.854;2022-10-17T06:47:44;32.27;;;14.40;;
46729;SDS011;32476;50.002;11.854;2022-10-17T06:50:10;88.03;;;38.13;;
46729;SDS011;32476;50.002;11.854;2022-10-17T06:52:37;15.57;;;8.73;;
46729;SDS011;32476;50.002;11.854;2022-10-17T06:55:04;21.43;;;13.60;;
46729;SDS011;32476;50.002;11.854;2022-10-17T06:57:30;24.53;;;14.03;;
46729;SDS011;32476;50.002;11.854;2022-10-17T06:59:57;25.43;;;12.40;;
46729;SDS011;32476;50.002;11.854;2022-10-17T07:02:23;17.37;;;9.10;;
46729;SDS011;32476;50.002;11.854;2022-10-17T07:04:49;62.50;;;27.87;;
46729;SDS011;32476;50.002;11.854;2022-10-17T07:07:17;75.37;;;32.80;;
46729;SDS011;32476;50.002;11.854;2022-10-17T07:09:43;12.07;;;7.07;;
46729;SDS011;32476;50.002;11.854;2022-10-17T07:12:09;31.50;;;15.63;;
46729;SDS011;32476;50.002;11.854;2022-10-17T07:14:38;44.50;;;21.37;;
46729;SDS011;32476;50.002;11.854;2022-10-17T07:17:04;15.70;;;9.50;;
46729;SDS011;32476;50.002;11.854;2022-10-17T07:19:30;43.87;;;24.30;;
46729;SDS011;32476;50.002;11.854;2022-10-17T07:21:57;18.03;;;9.53;;
46729;SDS011;32476;50.002;11.854;2022-10-17T07:24:24;18.03;;;10.40;;
46729;SDS011;32476;50.002;11.854;2022-10-17T07:26:55;9.97;;;5.77;;
46729;SDS011;32476;50.002;11.854;2022-10-17T07:29:30;9.20;;;4.63;;
46729;SDS011;32476;50.002;11.854;2022-10-17T07:31:58;8.27;;;3.73;;
46729;SDS011;32476;50.002;11.854;2022-10-17T07:34:25;15.27;;;6.83;;
46729;SDS011;32476;50.002;11.854;2022-10-17T07:36:54;24.37;;;10.67;;
46729;SDS011;32476;50.002;11.854;2022-10-17T07:39:20;64.13;;;24.33;;
46729;SDS011;32476;50.002;11.854;2022-10-17T07:41:48;12.33;;;6.50;;
46729;SDS011;32476;50.002;11.854;2022-10-17T07:44:15;8.20;;;4.67;;
46729;SDS011;32476;50.002;11.854;2022-10-17T07:46:41;5.07;;;3.23;;
46729;SDS011;32476;50.002;11.854;2022-10-17T07:49:08;5.97;;;3.43;;
46729;SDS011;32476;50.002;11.854;2022-10-17T07:51:34;6.13;;;3.67;;
46729;SDS011;32476;50.002;11.854;2022-10-17T07:54:00;4.40;;;2.90;;
46729;SDS011;32476;50.002;11.854;2022-10-17T07:56:28;6.20;;;2.97;;
46729;SDS011;32476;50.002;11.854;2022-10-17T07:58:54;6.20;;;3.23;;
46729;SDS011;32476;50.002;11.854;2022-10-17T08:01:19;3.53;;;3.00;;
46729;SDS011;32476;50.002;11.854;2022-10-17T08:03:47;6.00;;;3.20;;
46729;SDS011;32476;50.002;11.854;2022-10-17T08:06:13;4.23;;;3.43;;
46729;SDS011;32476;50.002;11.854;2022-10-17T08:08:40;5.57;;;3.03;;
46729;SDS011;32476;50.002;11.854;2022-10-17T08:11:09;9.10;;;4.50;;
46729;SDS011;32476;50.002;11.854;2022-10-17T08:13:37;7.23;;;2.50;;
46729;SDS011;32476;50.002;11.854;2022-10-17T08:16:05;7.10;;;2.83;;
46729;SDS011;32476;50.002;11.854;2022-10-17T08:18:37;4.67;;;3.00;;
46729;SDS011;32476;50.002;11.854;2022-10-17T08:21:05;3.17;;;2.80;;
46729;SDS011;32476;50.002;11.854;2022-10-17T08:23:32;10.67;;;2.40;;
46729;SDS011;32476;50.002;11.854;2022-10-17T08:26:01;3.03;;;2.20;;
46729;SDS011;32476;50.002;11.854;2022-10-17T08:28:30;3.73;;;2.50;;
46729;SDS011;32476;50.002;11.854;2022-10-17T08:31:01;4.30;;;2.70;;
46729;SDS011;32476;50.002;11.854;2022-10-17T08:33:34;3.00;;;2.20;;
46729;SDS011;32476;50.002;11.854;2022-10-17T08:36:01;3.45;;;2.20;;
46729;SDS011;32476;50.002;11.854;2022-10-17T08:38:28;4.45;;;2.10;;
46729;SDS011;32476;50.002;11.854;2022-10-17T08:40:58;3.25;;;2.20;;
46729;SDS011;32476;50.002;11.854;2022-10-17T08:46:29;3.97;;;2.17;;
46729;SDS011;32476;50.002;11.854;2022-10-17T08:49:01;3.53;;;2.30;;
46729;SDS011;32476;50.002;11.854;2022-10-17T08:51:35;3.38;;;2.22;;
46729;SDS011;32476;50.002;11.854;2022-10-17T08:54:17;4.45;;;1.75;;
46729;SDS011;32476;50.002;11.854;2022-10-17T08:56:52;3.15;;;1.95;;
46729;SDS011;32476;50.002;11.854;2022-10-17T08:59:21;2.83;;;2.08;;
46729;SDS011;32476;50.002;11.854;2022-10-17T09:02:05;4.70;;;1.50;;
46729;SDS011;32476;50.002;11.854;2022-10-17T09:10:45;5.65;;;2.05;;
46729;SDS011;32476;50.002;11.854;2022-10-17T09:13:36;1.80;;;1.50;;
46729;SDS011;32476;50.002;11.854;2022-10-17T09:16:24;3.60;;;2.05;;
46729;SDS011;32476;50.002;11.854;2022-10-17T09:19:06;3.90;;;1.70;;
46729;SDS011;32476;50.002;11.854;2022-10-17T09:21:55;2.17;;;1.55;;
46729;SDS011;32476;50.002;11.854;2022-10-17T09:27:02;4.55;;;1.70;;
46729;SDS011;32476;50.002;11.854;2022-10-17T09:29:31;2.67;;;1.70;;
46729;SDS011;32476;50.002;11.854;2022-10-17T09:32:09;2.17;;;1.67;;
46729;SDS011;32476;50.002;11.854;2022-10-17T09:34:44;7.15;;;1.75;;
46729;SDS011;32476;50.002;11.854;2022-10-17T09:37:12;3.58;;;1.60;;
46729;SDS011;32476;50.002;11.854;2022-10-17T09:39:40;2.47;;;1.60;;
46729;SDS011;32476;50.002;11.854;2022-10-17T09:42:11;2.40;;;1.70;;
46729;SDS011;32476;50.002;11.854;2022-10-17T09:44:48;2.15;;;1.45;;
46729;SDS011;32476;50.002;11.854;2022-10-17T09:47:33;1.60;;;1.40;;
46729;SDS011;32476;50.002;11.854;2022-10-17T09:50:18;1.65;;;1.25;;
46729;SDS011;32476;50.002;11.854;2022-10-17T09:52:54;4.70;;;1.42;;
46729;SDS011;32476;50.002;11.854;2022-10-17T09:55:30;2.55;;;1.30;;
46729;SDS011;32476;50.002;11.854;2022-10-17T09:58:08;4.07;;;1.15;;
46729;SDS011;32476;50.002;11.854;2022-10-17T10:00:36;4.18;;;1.40;;
46729;SDS011;32476;50.002;11.854;2022-10-17T10:03:13;1.30;;;1.20;;
46729;SDS011;32476;50.002;11.854;2022-10-17T10:08:35;1.20;;;1.10;;
46729;SDS011;32476;50.002;11.854;2022-10-17T10:11:25;2.33;;;1.20;;
46729;SDS011;32476;50.002;11.854;2022-10-17T10:14:14;2.65;;;1.02;;
46729;SDS011;32476;50.002;11.854;2022-10-17T10:16:57;4.85;;;1.00;;
46729;SDS011;32476;50.002;11.854;2022-10-17T10:19:28;2.53;;;1.40;;
46729;SDS011;32476;50.002;11.854;2022-10-17T10:21:58;3.95;;;1.20;;
46729;SDS011;32476;50.002;11.854;2022-10-17T10:24:28;2.42;;;1.05;;
46729;SDS011;32476;50.002;11.854;2022-10-17T10:26:56;3.50;;;1.20;;
46729;SDS011;32476;50.002;11.854;2022-10-17T10:29:47;1.55;;;1.02;;
46729;SDS011;32476;50.002;11.854;2022-10-17T10:34:56;1.30;;;1.00;;
46729;SDS011;32476;50.002;11.854;2022-10-17T10:37:27;1.33;;;0.90;;
46729;SDS011;32476;50.002;11.854;2022-10-17T10:40:06;1.52;;;1.00;;
46729;SDS011;32476;50.002;11.854;2022-10-17T10:42:53;1.10;;;0.98;;
46729;SDS011;32476;50.002;11.854;2022-10-17T10:45:25;1.00;;;0.90;;
46729;SDS011;32476;50.002;11.854;2022-10-17T10:47:54;1.38;;;1.15;;
46729;SDS011;32476;50.002;11.854;2022-10-17T10:56:18;1.30;;;1.20;;
46729;SDS011;32476;50.002;11.854;2022-10-17T10:59:05;1.95;;;1.02;;
46729;SDS011;32476;50.002;11.854;2022-10-17T11:10:20;1.60;;;1.20;;
46729;SDS011;32476;50.002;11.854;2022-10-17T11:15:56;2.33;;;1.27;;
46729;SDS011;32476;50.002;11.854;2022-10-17T11:18:41;6.47;;;1.95;;
46729;SDS011;32476;50.002;11.854;2022-10-17T11:21:24;3.05;;;1.48;;
46729;SDS011;32476;50.002;11.854;2022-10-17T11:24:36;1.50;;;1.25;;
46729;SDS011;32476;50.002;11.854;2022-10-17T11:27:30;4.00;;;1.60;;
46729;SDS011;32476;50.002;11.854;2022-10-17T11:30:00;2.90;;;1.15;;
46729;SDS011;32476;50.002;11.854;2022-10-17T11:32:36;2.75;;;1.23;;
46729;SDS011;32476;50.002;11.854;2022-10-17T11:35:19;5.47;;;1.60;;
46729;SDS011;32476;50.002;11.854;2022-10-17T11:38:13;3.85;;;1.58;;
46729;SDS011;32476;50.002;11.854;2022-10-17T11:41:01;2.60;;;1.55;;
46729;SDS011;32476;50.002;11.854;2022-10-17T11:43:35;2.33;;;1.40;;
46729;SDS011;32476;50.002;11.854;2022-10-17T11:46:24;2.97;;;1.27;;
46729;SDS011;32476;50.002;11.854;2022-10-17T11:51:51;5.15;;;1.48;;
46729;SDS011;32476;50.002;11.854;2022-10-17T11:54:29;1.88;;;1.40;;
46729;SDS011;32476;50.002;11.854;2022-10-17T11:57:21;4.10;;;1.50;;
46729;SDS011;32476;50.002;11.854;2022-10-17T12:03:40;2.92;;;1.58;;
46729;SDS011;32476;50.002;11.854;2022-10-17T12:09:17;3.35;;;1.50;;
46729;SDS011;32476;50.002;11.854;2022-10-17T12:12:10;2.40;;;1.52;;
46729;SDS011;32476;50.002;11.854;2022-10-17T12:15:25;2.05;;;1.55;;
46729;SDS011;32476;50.002;11.854;2022-10-17T12:17:44;3.65;;;1.60;;
46729;SDS011;32476;50.002;11.854;2022-10-17T12:28:46;2.47;;;1.65;;
46729;SDS011;32476;50.002;11.854;2022-10-17T12:33:55;2.30;;;1.38;;
46729;SDS011;32476;50.002;11.854;2022-10-17T12:49:47;2.63;;;1.42;;
46729;SDS011;32476;50.002;11.854;2022-10-17T12:52:23;4.15;;;1.40;;
46729;SDS011;32476;50.002;11.854;2022-10-17T12:54:54;1.65;;;1.52;;
46729;SDS011;32476;50.002;11.854;2022-10-17T13:00:32;1.88;;;1.67;;
46729;SDS011;32476;50.002;11.854;2022-10-17T13:03:12;4.10;;;2.22;;
46729;SDS011;32476;50.002;11.854;2022-10-17T13:05:46;4.30;;;1.30;;
46729;SDS011;32476;50.002;11.854;2022-10-17T13:08:38;4.82;;;1.40;;
46729;SDS011;32476;50.002;11.854;2022-10-17T13:11:09;5.22;;;1.15;;
46729;SDS011;32476;50.002;11.854;2022-10-17T13:13:47;4.18;;;1.60;;
46729;SDS011;32476;50.002;11.854;2022-10-17T13:19:00;2.00;;;1.45;;
46729;SDS011;32476;50.002;11.854;2022-10-17T13:21:35;3.17;;;1.38;;
46729;SDS011;32476;50.002;11.854;2022-10-17T13:27:26;5.90;;;1.55;;
46729;SDS011;32476;50.002;11.854;2022-10-17T13:29:57;2.50;;;1.55;;
46729;SDS011;32476;50.002;11.854;2022-10-17T13:32:26;1.83;;;1.50;;
46729;SDS011;32476;50.002;11.854;2022-10-17T13:35:12;6.55;;;1.77;;
46729;SDS011;32476;50.002;11.854;2022-10-17T13:37:42;3.33;;;1.33;;
46729;SDS011;32476;50.002;11.854;2022-10-17T13:40:16;4.47;;;1.75;;
46729;SDS011;32476;50.002;11.854;2022-10-17T13:42:47;2.35;;;1.70;;
46729;SDS011;32476;50.002;11.854;2022-10-17T13:45:33;4.72;;;1.50;;
46729;SDS011;32476;50.002;11.854;2022-10-17T13:48:03;2.95;;;1.67;;
46729;SDS011;32476;50.002;11.854;2022-10-17T13:50:36;2.10;;;1.42;;
46729;SDS011;32476;50.002;11.854;2022-10-17T13:58:51;3.17;;;1.67;;
46729;SDS011;32476;50.002;11.854;2022-10-17T14:01:41;3.30;;;1.80;;
46729;SDS011;32476;50.002;11.854;2022-10-17T14:04:08;2.78;;;1.50;;
46729;SDS011;32476;50.002;11.854;2022-10-17T14:06:41;1.45;;;1.30;;
46729;SDS011;32476;50.002;11.854;2022-10-17T14:09:21;3.05;;;1.70;;
46729;SDS011;32476;50.002;11.854;2022-10-17T14:11:59;3.60;;;1.60;;
46729;SDS011;32476;50.002;11.854;2022-10-17T14:14:37;5.03;;;1.70;;
46729;SDS011;32476;50.002;11.854;2022-10-17T14:17:12;3.63;;;2.00;;
46729;SDS011;32476;50.002;11.854;2022-10-17T14:19:55;4.38;;;1.88;;
46729;SDS011;32476;50.002;11.854;2022-10-17T14:22:28;5.35;;;1.98;;
46729;SDS011;32476;50.002;11.854;2022-10-17T14:25:01;1.92;;;1.73;;
46729;SDS011;32476;50.002;11.854;2022-10-17T14:27:35;2.50;;;1.80;;
46729;SDS011;32476;50.002;11.854;2022-10-17T14:32:50;3.90;;;2.03;;
46729;SDS011;32476;50.002;11.854;2022-10-17T14:35:25;4.07;;;1.80;;
46729;SDS011;32476;50.002;11.854;2022-10-17T14:37:52;3.85;;;1.80;;
46729;SDS011;32476;50.002;11.854;2022-10-17T14:40:31;3.03;;;1.63;;
46729;SDS011;32476;50.002;11.854;2022-10-17T14:43:02;4.10;;;2.10;;
46729;SDS011;32476;50.002;11.854;2022-10-17T14:45:35;4.32;;;2.15;;
46729;SDS011;32476;50.002;11.854;2022-10-17T14:48:05;5.47;;;1.90;;
46729;SDS011;32476;50.002;11.854;2022-10-17T14:53:42;5.18;;;2.00;;
46729;SDS011;32476;50.002;11.854;2022-10-17T14:56:26;3.03;;;1.80;;
46729;SDS011;32476;50.002;11.854;2022-10-17T14:59:02;5.80;;;2.22;;
46729;SDS011;32476;50.002;11.854;2022-10-17T15:01:32;2.45;;;1.95;;
46729;SDS011;32476;50.002;11.854;2022-10-17T15:03:59;2.53;;;1.90;;
46729;SDS011;32476;50.002;11.854;2022-10-17T15:06:27;4.82;;;2.00;;
46729;SDS011;32476;50.002;11.854;2022-10-17T15:08:57;5.97;;;2.35;;
46729;SDS011;32476;50.002;11.854;2022-10-17T15:11:23;4.38;;;2.40;;
46729;SDS011;32476;50.002;11.854;2022-10-17T15:13:50;4.50;;;2.65;;
46729;SDS011;32476;50.002;11.854;2022-10-17T15:16:19;5.72;;;2.22;;
46729;SDS011;32476;50.002;11.854;2022-10-17T15:18:55;3.72;;;2.40;;
46729;SDS011;32476;50.002;11.854;2022-10-17T15:21:24;14.40;;;3.05;;
46729;SDS011;32476;50.002;11.854;2022-10-17T15:23:53;6.65;;;2.92;;
46729;SDS011;32476;50.002;11.854;2022-10-17T15:26:20;7.25;;;3.03;;
46729;SDS011;32476;50.002;11.854;2022-10-17T15:28:50;10.85;;;2.75;;
46729;SDS011;32476;50.002;11.854;2022-10-17T15:31:18;6.35;;;3.65;;
46729;SDS011;32476;50.002;11.854;2022-10-17T15:33:46;12.32;;;3.97;;
46729;SDS011;32476;50.002;11.854;2022-10-17T15:36:38;7.72;;;4.00;;
46729;SDS011;32476;50.002;11.854;2022-10-17T15:39:04;7.88;;;3.67;;
46729;SDS011;32476;50.002;11.854;2022-10-17T15:41:32;6.68;;;3.80;;
46729;SDS011;32476;50.002;11.854;2022-10-17T15:43:58;7.78;;;3.95;;
46729;SDS011;32476;50.002;11.854;2022-10-17T15:46:28;9.40;;;4.78;;
46729;SDS011;32476;50.002;11.854;2022-10-17T15:49:00;7.30;;;5.22;;
46729;SDS011;32476;50.002;11.854;2022-10-17T15:51:32;8.13;;;4.40;;
46729;SDS011;32476;50.002;11.854;2022-10-17T15:54:00;21.60;;;11.63;;
46729;SDS011;32476;50.002;11.854;2022-10-17T15:56:30;16.15;;;8.10;;
46729;SDS011;32476;50.002;11.854;2022-10-17T15:59:02;15.43;;;8.23;;
46729;SDS011;32476;50.002;11.854;2022-10-17T16:01:32;23.70;;;6.53;;
46729;SDS011;32476;50.002;11.854;2022-10-17T16:03:58;24.45;;;13.48;;
46729;SDS011;32476;50.002;11.854;2022-10-17T16:06:27;33.60;;;17.42;;
46729;SDS011;32476;50.002;11.854;2022-10-17T16:08:53;47.50;;;21.42;;
46729;SDS011;32476;50.002;11.854;2022-10-17T16:11:27;44.55;;;24.45;;
46729;SDS011;32476;50.002;11.854;2022-10-17T16:14:05;79.93;;;45.40;;
46729;SDS011;32476;50.002;11.854;2022-10-17T16:16:37;71.13;;;39.88;;
46729;SDS011;32476;50.002;11.854;2022-10-17T16:19:06;250.15;;;145.18;;
46729;SDS011;32476;50.002;11.854;2022-10-17T16:21:33;403.23;;;243.43;;
46729;SDS011;32476;50.002;11.854;2022-10-17T16:26:35;133.98;;;75.32;;
46729;SDS011;32476;50.002;11.854;2022-10-17T16:29:01;255.98;;;142.85;;
46729;SDS011;32476;50.002;11.854;2022-10-17T16:31:33;156.43;;;83.65;;
46729;SDS011;32476;50.002;11.854;2022-10-17T16:34:03;208.75;;;115.72;;
46729;SDS011;32476;50.002;11.854;2022-10-17T16:36:30;221.77;;;121.38;;
46729;SDS011;32476;50.002;11.854;2022-10-17T16:38:57;195.60;;;108.70;;
46729;SDS011;32476;50.002;11.854;2022-10-17T16:41:30;129.32;;;76.72;;
46729;SDS011;32476;50.002;11.854;2022-10-17T16:44:07;62.08;;;30.35;;
46729;SDS011;32476;50.002;11.854;2022-10-17T16:46:36;78.18;;;35.08;;
46729;SDS011;32476;50.002;11.854;2022-10-17T16:49:06;67.45;;;30.55;;
46729;SDS011;32476;50.002;11.854;2022-10-17T16:51:32;67.30;;;27.13;;
46729;SDS011;32476;50.002;11.854;2022-10-17T16:54:01;56.73;;;25.00;;
46729;SDS011;32476;50.002;11.854;2022-10-17T16:56:28;39.57;;;18.80;;